Time;durP1;ratioP1;P1;durP2;ratioP2;P2;SDS_P1;SDS_P2;PMS_P1;PMS_P2;Temp;Humidity;BMP_temperature;BMP_pressure;BME280_temperature;BME280_humidity;BME280_pressure;Samples;Min_cycle;Max_cycle;Signal;HPM_P1;HPM_P2
2023/03/08 00:01:30;;;;;;;1.12;1.12;;;;;;;7.49;58.30;98543.53;4430338;32;33732;-83
2023/03/08 00:03:59;;;;;;;1.00;1.00;;;;;;;7.37;58.43;98543.25;4424484;32;33490;-83
2023/03/08 00:06:27;;;;;;;2.08;1.70;;;;;;;7.38;58.39;98546.72;4401384;32;33335;-83
2023/03/08 00:09:00;;;;;;;5.80;2.85;;;;;;;7.33;58.18;98544.34;4372422;32;34525;-83
2023/03/08 00:11:29;;;;;;;0.95;0.95;;;;;;;7.29;58.42;98550.66;4385955;32;33793;-83
2023/03/08 00:13:57;;;;;;;4.87;2.28;;;;;;;7.36;57.71;98549.44;4405383;32;33628;-83
2023/03/08 00:16:25;;;;;;;1.75;1.33;;;;;;;7.16;58.46;98554.81;4379251;32;32308;-83
2023/03/08 00:19:00;;;;;;;0.98;0.95;;;;;;;7.19;58.41;98557.31;4403955;32;35255;-83
2023/03/08 00:21:30;;;;;;;2.28;2.17;;;;;;;7.21;58.33;98544.94;4415173;32;33173;-83
2023/03/08 00:23:59;;;;;;;2.70;2.25;;;;;;;7.15;58.40;98545.25;4427773;32;33756;-83
2023/03/08 00:26:27;;;;;;;3.30;2.42;;;;;;;7.06;58.43;98557.03;4421812;32;33219;-83
2023/03/08 00:28:55;;;;;;;1.15;0.68;;;;;;;6.88;58.83;98556.19;4421632;32;32712;-83
2023/03/08 00:31:24;;;;;;;9.60;3.87;;;;;;;7.09;57.87;98561.31;4399025;32;33739;-85
2023/03/08 00:33:54;;;;;;;1.77;1.67;;;;;;;6.86;58.33;98560.66;4420013;32;33476;-85
2023/03/08 00:36:22;;;;;;;0.82;0.82;;;;;;;6.88;58.33;98557.94;4415148;32;33040;-85
2023/03/08 00:38:51;;;;;;;6.57;3.78;;;;;;;6.74;58.72;98556.00;4422390;32;33232;-85
2023/03/08 00:41:19;;;;;;;4.37;3.12;;;;;;;6.65;58.62;98562.53;4428591;32;34964;-85
2023/03/08 00:43:47;;;;;;;14.98;2.95;;;;;;;6.62;58.73;98557.44;4429156;32;33585;-85
2023/03/08 00:46:15;;;;;;;0.90;0.90;;;;;;;6.43;59.32;98550.50;4367988;32;32430;-83
2023/03/08 00:48:44;;;;;;;11.10;4.22;;;;;;;6.31;59.89;98555.38;4411201;32;33845;-83
2023/03/08 00:51:14;;;;;;;5.95;2.00;;;;;;;6.44;59.38;98546.94;4432615;32;33734;-83
2023/03/08 00:53:42;;;;;;;4.37;1.95;;;;;;;6.36;59.65;98544.69;4395709;32;33785;-85
2023/03/08 00:56:11;;;;;;;3.35;3.05;;;;;;;6.18;60.10;98551.66;4437901;32;33414;-85
2023/03/08 00:58:40;;;;;;;1.25;1.12;;;;;;;6.24;60.58;98550.50;4436399;32;33945;-85
2023/03/08 01:01:14;;;;;;;1.42;1.33;;;;;;;6.87;57.34;98562.34;4437412;32;33721;-85
2023/03/08 01:03:42;;;;;;;1.90;1.30;;;;;;;6.29;58.90;98553.75;4443173;32;33369;-85
2023/03/08 01:06:12;;;;;;;2.83;2.60;;;;;;;5.99;60.57;98556.88;4451165;32;33387;-85
2023/03/08 01:08:46;;;;;;;2.65;2.30;;;;;;;5.95;60.82;98546.59;4400335;32;33326;-87
2023/03/08 01:11:21;;;;;;;1.17;1.08;;;;;;;5.85;61.17;98544.34;4428277;32;35059;-87
2023/03/08 01:13:50;;;;;;;2.33;2.03;;;;;;;6.31;59.20;98546.66;4423126;32;32733;-87
2023/03/08 01:16:22;;;;;;;0.80;0.80;;;;;;;5.93;60.21;98551.03;4409293;32;33262;-87
2023/03/08 01:18:50;;;;;;;5.72;1.85;;;;;;;5.90;60.43;98547.63;4381338;32;32679;-87
2023/03/08 01:21:20;;;;;;;6.20;4.75;;;;;;;5.92;60.27;98554.56;4432147;32;34897;-87
2023/03/08 01:23:49;;;;;;;1.65;1.55;;;;;;;5.83;60.78;98563.66;4377400;32;33443;-86
2023/03/08 01:26:20;;;;;;;3.22;1.48;;;;;;;5.84;60.99;98563.62;4386163;32;33048;-84
2023/03/08 01:28:49;;;;;;;3.72;2.80;;;;;;;5.89;60.70;98572.12;4387996;32;33802;-85
2023/03/08 01:31:20;;;;;;;2.22;2.00;;;;;;;5.88;60.31;98580.88;4405055;32;33323;-85
2023/03/08 01:33:51;;;;;;;1.50;1.33;;;;;;;5.83;60.38;98585.47;4380086;32;32590;-85
2023/03/08 01:36:21;;;;;;;0.52;0.52;;;;;;;5.67;61.20;98587.06;4422913;32;33296;-85
2023/03/08 01:38:49;;;;;;;0.20;0.20;;;;;;;5.79;62.84;98589.16;4377057;32;32980;-85
2023/03/08 01:41:24;;;;;;;0.68;0.68;;;;;;;6.05;62.62;98589.81;4370302;32;34652;-85
2023/03/08 01:43:53;;;;;;;0.93;0.93;;;;;;;6.12;62.16;98576.37;4387875;32;32417;-84
2023/03/08 01:46:27;;;;;;;0.55;0.55;;;;;;;6.07;63.07;98585.34;4410091;32;32955;-85
2023/03/08 01:48:59;;;;;;;0.95;0.95;;;;;;;6.16;62.79;98585.75;4397663;32;33471;-85
2023/03/08 01:52:06;;;;;;;0.52;0.52;;;;;;;6.11;63.76;98590.37;4412041;32;33065;-84
2023/03/08 01:54:40;;;;;;;1.17;1.17;;;;;;;6.17;65.59;98612.81;4376241;32;33798;-83
2023/03/08 01:57:16;;;;;;;0.00;0.00;;;;;;;6.17;65.08;98602.34;4401388;32;33120;-82
2023/03/08 01:59:49;;;;;;;0.70;0.70;;;;;;;6.28;65.97;98605.34;4426122;32;33616;-83
2023/03/08 02:02:21;;;;;;;0.90;0.73;;;;;;;6.52;66.42;98607.78;4444140;32;33497;-83
2023/03/08 02:04:50;;;;;;;1.25;0.80;;;;;;;6.61;66.21;98608.19;4412682;32;32514;-83
2023/03/08 02:07:18;;;;;;;0.77;0.77;;;;;;;6.71;66.80;98608.59;4415834;32;33038;-83
2023/03/08 02:09:47;;;;;;;0.57;0.57;;;;;;;6.78;66.73;98602.12;4414642;32;33435;-83
2023/03/08 02:12:16;;;;;;;0.77;0.77;;;;;;;6.94;66.57;98610.16;4398814;32;33934;-83
2023/03/08 02:14:44;;;;;;;5.57;4.22;;;;;;;7.02;66.60;98610.59;4371021;32;33590;-83
2023/03/08 02:17:12;;;;;;;1.25;0.75;;;;;;;7.10;66.19;98610.25;4390435;32;32621;-83
2023/03/08 02:19:53;;;;;;;1.27;1.20;;;;;;;7.30;65.57;98610.12;4373424;32;33449;-82
2023/03/08 02:22:23;;;;;;;2.90;1.65;;;;;;;7.29;65.96;98605.81;4375222;32;32864;-83
2023/03/08 02:24:51;;;;;;;1.45;1.23;;;;;;;7.26;66.21;98603.31;4382710;32;32720;-83
2023/03/08 02:27:23;;;;;;;2.67;2.17;;;;;;;7.40;65.87;98606.09;4342768;32;33043;-83
2023/03/08 02:29:51;;;;;;;1.50;1.45;;;;;;;7.47;65.89;98601.41;4374828;32;34303;-85
2023/03/08 02:32:19;;;;;;;0.03;0.03;;;;;;;7.48;65.95;98612.75;4394602;32;33598;-84
2023/03/08 02:34:47;;;;;;;1.58;1.25;;;;;;;7.30;66.94;98612.75;4428529;32;33547;-84
2023/03/08 02:37:15;;;;;;;0.68;0.68;;;;;;;7.42;66.48;98616.56;4434054;32;32987;-85
2023/03/08 02:39:42;;;;;;;1.70;1.15;;;;;;;7.33;66.48;98620.47;4386166;32;35539;-85
2023/03/08 02:42:10;;;;;;;0.50;0.50;;;;;;;7.28;66.83;98619.00;4416185;32;33840;-85
2023/03/08 02:44:38;;;;;;;1.05;1.05;;;;;;;7.37;66.48;98627.28;4431911;32;33431;-85
2023/03/08 02:47:06;;;;;;;1.60;1.50;;;;;;;7.46;66.41;98635.66;4404483;32;32980;-84
2023/03/08 02:49:34;;;;;;;0.37;0.37;;;;;;;7.54;65.73;98625.59;4412225;32;35099;-84
2023/03/08 02:52:02;;;;;;;0.65;0.62;;;;;;;7.45;65.95;98640.03;4410706;32;33551;-85
2023/03/08 02:54:29;;;;;;;3.22;1.85;;;;;;;7.41;65.95;98639.34;4378151;32;33819;-86
2023/03/08 02:56:57;;;;;;;0.82;0.82;;;;;;;7.40;66.23;98639.41;4387091;32;33016;-86
2023/03/08 02:59:29;;;;;;;1.60;1.42;;;;;;;7.38;66.12;98646.50;4368390;32;33742;-86
2023/03/08 03:01:58;;;;;;;1.00;0.98;;;;;;;7.35;66.12;98652.75;4367816;32;32958;-85
2023/03/08 03:04:30;;;;;;;1.62;1.25;;;;;;;7.37;66.17;98650.91;4420207;32;33435;-85
2023/03/08 03:06:59;;;;;;;2.50;2.37;;;;;;;7.44;65.83;98652.31;4412648;32;33346;-86
2023/03/08 03:09:28;;;;;;;0.32;0.32;;;;;;;7.39;65.76;98658.72;4428285;32;34708;-86
2023/03/08 03:11:56;;;;;;;0.40;0.40;;;;;;;7.45;65.51;98655.78;4434440;32;33652;-86
2023/03/08 03:14:27;;;;;;;0.80;0.80;;;;;;;7.34;65.72;98656.31;4430903;32;33116;-87
2023/03/08 03:17:00;;;;;;;2.62;1.12;;;;;;;7.38;65.66;98663.12;4383232;32;33138;-87
2023/03/08 03:19:28;;;;;;;2.28;2.08;;;;;;;7.48;65.32;98673.19;4369542;32;32774;-87
2023/03/08 03:21:56;;;;;;;2.58;1.77;;;;;;;7.76;64.15;98678.75;4408240;32;33117;-87
2023/03/08 03:24:25;;;;;;;3.45;2.17;;;;;;;7.60;64.07;98680.47;4394375;32;34353;-87
2023/03/08 03:26:54;;;;;;;0.20;0.20;;;;;;;7.47;64.79;98695.97;4400093;32;32163;-85
2023/03/08 03:29:22;;;;;;;2.08;1.98;;;;;;;7.47;64.83;98688.09;4408275;32;34559;-86
2023/03/08 03:31:50;;;;;;;0.65;0.65;;;;;;;7.55;64.78;98685.06;4398621;32;33725;-85
2023/03/08 03:34:19;;;;;;;2.75;2.03;;;;;;;7.77;63.81;98690.97;4410164;32;33781;-85
2023/03/08 03:36:47;;;;;;;2.67;2.53;;;;;;;7.82;63.37;98691.59;4415321;32;32014;-85
2023/03/08 03:39:15;;;;;;;0.82;0.82;;;;;;;7.85;63.10;98694.06;4401573;32;34113;-85
2023/03/08 03:41:44;;;;;;;0.93;0.93;;;;;;;7.62;63.82;98687.31;4401843;32;32485;-85
2023/03/08 03:44:13;;;;;;;1.00;0.82;;;;;;;7.44;64.60;98685.59;4417649;32;33154;-85
2023/03/08 03:46:41;;;;;;;4.50;2.87;;;;;;;7.52;64.64;98677.34;4350627;32;34011;-85
2023/03/08 03:49:12;;;;;;;1.75;1.65;;;;;;;7.42;64.82;98675.19;4365541;32;31750;-85
2023/03/08 03:51:43;;;;;;;1.27;1.27;;;;;;;7.13;65.67;98673.13;4380291;32;34416;-85
2023/03/08 03:54:13;;;;;;;2.28;2.17;;;;;;;6.99;66.28;98660.63;4402458;32;32372;-85
2023/03/08 03:56:41;;;;;;;2.58;2.37;;;;;;;7.00;66.25;98648.38;4400399;32;33544;-85
2023/03/08 03:59:11;;;;;;;1.33;1.23;;;;;;;6.98;66.36;98648.44;4399957;32;33848;-86
2023/03/08 04:01:39;;;;;;;0.28;0.28;;;;;;;7.11;66.18;98653.94;4396240;32;33804;-86
2023/03/08 04:04:12;;;;;;;0.98;0.62;;;;;;;6.89;66.25;98664.63;4387653;32;34530;-87
2023/03/08 04:06:40;;;;;;;0.55;0.55;;;;;;;6.93;66.37;98669.66;4382004;32;32484;-87
2023/03/08 04:09:13;;;;;;;0.82;0.82;;;;;;;6.95;65.92;98676.59;4398029;32;34478;-87
2023/03/08 04:11:42;;;;;;;0.47;0.47;;;;;;;6.77;66.37;98684.41;4416212;32;35194;-86
2023/03/08 04:14:13;;;;;;;1.65;1.55;;;;;;;6.93;65.92;98690.66;4427293;32;34533;-85
2023/03/08 04:16:40;;;;;;;0.93;0.93;;;;;;;7.06;65.28;98690.06;4437180;32;33117;-84
2023/03/08 04:19:11;;;;;;;2.65;2.00;;;;;;;7.01;65.29;98690.28;4439535;32;33874;-84
2023/03/08 04:21:41;;;;;;;1.17;1.00;;;;;;;6.98;65.11;98692.19;4450107;32;34778;-86
2023/03/08 04:24:10;;;;;;;1.77;1.67;;;;;;;7.02;64.78;98706.88;4380056;32;33400;-86
2023/03/08 04:26:40;;;;;;;0.73;0.62;;;;;;;6.98;64.54;98714.06;4394731;32;33163;-86
2023/03/08 04:29:12;;;;;;;0.65;0.65;;;;;;;7.06;64.56;98708.44;4409524;32;33819;-86
2023/03/08 04:31:41;;;;;;;0.43;0.43;;;;;;;6.95;64.83;98721.22;4429043;32;33913;-86
2023/03/08 04:34:10;;;;;;;1.90;1.80;;;;;;;6.91;64.69;98718.72;4432235;32;33576;-86
2023/03/08 04:36:40;;;;;;;0.35;0.35;;;;;;;6.75;65.26;98722.13;4436916;32;33737;-86
2023/03/08 04:39:08;;;;;;;1.98;1.85;;;;;;;6.76;65.15;98726.44;4442219;32;33747;-85
2023/03/08 04:41:36;;;;;;;3.42;2.72;;;;;;;6.96;64.74;98728.16;4453605;32;34833;-85
2023/03/08 04:44:06;;;;;;;0.70;0.70;;;;;;;6.81;65.17;98725.31;4429717;32;33962;-85
2023/03/08 04:46:36;;;;;;;0.88;0.88;;;;;;;6.70;65.56;98722.34;4415613;32;33270;-85
2023/03/08 04:49:03;;;;;;;2.47;1.92;;;;;;;6.81;65.15;98727.94;4398458;32;34542;-84
2023/03/08 04:51:32;;;;;;;5.97;2.90;;;;;;;6.74;65.21;98723.03;4410885;32;33232;-84
2023/03/08 04:54:03;;;;;;;1.98;1.87;;;;;;;6.83;65.32;98720.84;4447455;32;33578;-84
2023/03/08 04:56:32;;;;;;;2.95;1.67;;;;;;;6.83;65.30;98723.47;4395224;32;32630;-84
2023/03/08 04:59:00;;;;;;;0.57;0.57;;;;;;;6.91;64.54;98710.84;4422883;32;34409;-84
2023/03/08 05:01:36;;;;;;;2.92;1.27;;;;;;;6.87;65.04;98725.03;4438095;32;34141;-85
2023/03/08 05:04:04;;;;;;;0.20;0.20;;;;;;;6.96;65.02;98717.66;4411109;32;34320;-86
2023/03/08 05:06:34;;;;;;;0.13;0.13;;;;;;;6.95;64.90;98706.31;4374139;32;32759;-84
2023/03/08 05:09:02;;;;;;;5.57;2.17;;;;;;;6.96;64.83;98707.16;4387691;32;32451;-84
2023/03/08 05:11:35;;;;;;;0.62;0.62;;;;;;;6.79;65.00;98705.31;4429123;32;33788;-84
2023/03/08 05:14:04;;;;;;;1.67;1.58;;;;;;;6.87;64.73;98709.28;4401468;32;34298;-84
2023/03/08 05:16:33;;;;;;;0.68;0.68;;;;;;;6.75;64.81;98720.34;4444857;32;32949;-84
2023/03/08 05:19:04;;;;;;;1.58;1.08;;;;;;;7.35;62.84;98715.78;4413914;32;32691;-84
2023/03/08 05:21:33;;;;;;;1.15;1.15;;;;;;;7.00;63.49;98720.06;4381752;32;34441;-83
2023/03/08 05:24:03;;;;;;;1.67;1.65;;;;;;;6.78;63.85;98716.72;4395707;32;34151;-83
2023/03/08 05:26:33;;;;;;;5.12;1.80;;;;;;;6.76;64.00;98713.34;4395945;32;33494;-84
2023/03/08 05:29:05;;;;;;;1.95;1.85;;;;;;;6.75;64.11;98725.59;4396772;32;33541;-84
2023/03/08 05:31:38;;;;;;;1.77;1.65;;;;;;;6.59;63.87;98729.81;4386826;32;33727;-84
2023/03/08 05:34:10;;;;;;;1.60;1.50;;;;;;;6.47;64.35;98735.63;4370294;32;33464;-84
2023/03/08 05:36:41;;;;;;;0.62;0.62;;;;;;;6.64;63.76;98743.56;4414747;32;33916;-84
2023/03/08 05:39:10;;;;;;;0.80;0.80;;;;;;;6.61;63.66;98746.34;4428393;32;33547;-84
2023/03/08 05:41:40;;;;;;;1.75;0.93;;;;;;;6.67;63.42;98746.91;4417946;32;32533;-85
2023/03/08 05:44:11;;;;;;;2.15;1.27;;;;;;;6.50;63.92;98757.28;4383703;32;33731;-85
2023/03/08 05:46:39;;;;;;;3.00;2.35;;;;;;;6.65;63.47;98755.81;4395338;32;32725;-84
2023/03/08 05:49:08;;;;;;;0.20;0.20;;;;;;;6.65;63.59;98766.28;4370026;32;34694;-84
2023/03/08 05:51:40;;;;;;;0.77;0.77;;;;;;;6.69;63.47;98773.06;4346522;32;33559;-83
2023/03/08 05:54:10;;;;;;;0.65;0.65;;;;;;;6.74;63.47;98779.00;4334162;32;33454;-84
2023/03/08 05:56:42;;;;;;;1.58;1.48;;;;;;;6.76;63.56;98769.28;4333103;32;33308;-85
2023/03/08 05:59:18;;;;;;;1.98;1.87;;;;;;;6.80;63.43;98770.00;4341089;32;33952;-84
2023/03/08 06:01:47;;;;;;;1.67;1.52;;;;;;;6.87;63.39;98780.13;4351443;32;31093;-85
2023/03/08 06:04:23;;;;;;;0.35;0.35;;;;;;;6.88;63.40;98780.97;4336294;32;35492;-85
2023/03/08 06:06:51;;;;;;;0.85;0.73;;;;;;;6.91;63.49;98779.06;4349784;32;32836;-85
2023/03/08 06:09:20;;;;;;;0.85;0.85;;;;;;;7.03;63.50;98792.59;4383980;32;32670;-85
2023/03/08 06:11:51;;;;;;;0.77;0.75;;;;;;;7.00;63.51;98796.19;4390999;32;33980;-88
2023/03/08 06:14:20;;;;;;;1.55;1.15;;;;;;;7.04;63.75;98799.53;4401632;32;34629;-88
2023/03/08 06:16:52;;;;;;;2.72;2.53;;;;;;;6.93;64.48;98806.13;4402391;32;33792;-89
2023/03/08 06:19:29;;;;;;;1.75;1.65;;;;;;;7.09;64.12;98808.06;4353009;32;33116;-90
2023/03/08 06:22:18;;;;;;;0.47;0.47;;;;;;;7.19;64.12;98798.81;4357583;32;34758;-89
2023/03/08 06:24:48;;;;;;;2.67;2.47;;;;;;;7.23;64.27;98808.28;4370867;32;32615;-89
2023/03/08 06:27:17;;;;;;;1.35;1.25;;;;;;;7.26;64.62;98807.25;4374794;32;32398;-89
2023/03/08 06:29:50;;;;;;;;;;;;;;;7.27;64.81;98812.47;4367328;32;32528;-89
2023/03/08 06:32:21;;;;;;;1.15;0.62;;;;;;;7.35;64.73;98815.56;4369981;32;33278;-89
2023/03/08 06:34:51;;;;;;;1.08;0.95;;;;;;;7.43;64.99;98810.81;4362259;32;33929;-89
2023/03/08 06:40:12;;;;;;;0.95;0.88;;;;;;;7.65;65.02;98812.44;4335149;32;32989;-88
2023/03/08 06:42:43;;;;;;;1.98;1.35;;;;;;;7.85;64.65;98809.72;4337579;32;33934;-88
2023/03/08 06:45:13;;;;;;;0.52;0.52;;;;;;;8.06;64.05;98813.06;4354132;32;32837;-88
2023/03/08 06:47:41;;;;;;;1.02;1.02;;;;;;;8.26;63.38;98819.97;4367588;32;33001;-89
2023/03/08 06:50:10;;;;;;;2.08;1.10;;;;;;;8.25;63.50;98826.16;4371624;32;32206;-90
2023/03/08 06:52:43;;;;;;;2.05;1.87;;;;;;;8.26;63.56;98825.25;4360903;32;33071;-89
2023/03/08 06:55:20;;;;;;;1.12;0.75;;;;;;;8.19;64.71;98821.19;4353398;32;33143;-89
2023/03/08 06:57:48;;;;;;;0.60;0.60;;;;;;;8.32;65.11;98830.19;4377242;32;32962;-88
2023/03/08 07:00:19;;;;;;;1.37;1.23;;;;;;;8.58;64.79;98821.00;4377888;32;33524;-88
2023/03/08 07:02:48;;;;;;;1.25;1.15;;;;;;;8.78;64.35;98835.75;4353818;32;33591;-88
2023/03/08 07:05:17;;;;;;;0.40;0.40;;;;;;;9.02;63.90;98838.03;4343524;32;32606;-88
2023/03/08 07:07:45;;;;;;;1.67;1.58;;;;;;;9.16;62.99;98843.44;4396515;32;32746;-88
2023/03/08 07:10:19;;;;;;;1.35;1.25;;;;;;;9.12;62.20;98847.19;4398008;32;32907;-88
2023/03/08 07:12:50;;;;;;;2.55;1.85;;;;;;;9.09;61.66;98839.44;4399832;32;32828;-88
2023/03/08 07:15:20;;;;;;;3.75;1.70;;;;;;;8.84;61.44;98859.16;4379183;32;34249;-88
2023/03/08 07:17:54;;;;;;;0.52;0.52;;;;;;;8.57;60.52;98860.56;4373443;32;32809;-88
2023/03/08 07:20:26;;;;;;;0.50;0.50;;;;;;;8.85;59.66;98866.13;4373229;32;33030;-88
2023/03/08 07:22:55;;;;;;;1.73;1.10;;;;;;;9.00;58.64;98867.09;4345853;32;32665;-88
2023/03/08 07:25:25;;;;;;;1.00;0.95;;;;;;;9.32;57.88;98860.13;4369433;32;33485;-88
2023/03/08 07:27:57;;;;;;;1.85;1.73;;;;;;;9.28;57.05;98869.12;4369604;32;32304;-88
2023/03/08 07:30:28;;;;;;;3.35;1.95;;;;;;;9.35;56.70;98870.53;4368253;32;34570;-88
2023/03/08 07:32:59;;;;;;;2.67;1.85;;;;;;;9.58;56.52;98871.03;4365360;32;33616;-88
2023/03/08 07:35:28;;;;;;;1.60;1.50;;;;;;;9.88;55.33;98856.19;4377224;32;32531;-88
2023/03/08 07:37:58;;;;;;;3.85;3.55;;;;;;;10.25;54.53;98862.03;4377612;32;32270;-89
2023/03/08 07:44:46;;;;;;;0.20;0.20;;;;;;;10.94;50.83;98869.41;4348911;33;34696;-88
2023/03/08 07:47:16;;;;;;;1.58;1.48;;;;;;;11.43;47.52;98871.69;4291933;33;33345;-88
2023/03/08 07:49:47;;;;;;;1.25;1.15;;;;;;;11.42;46.29;98877.94;4315699;33;33090;-88
2023/03/08 07:52:19;;;;;;;5.60;5.30;;;;;;;11.52;47.09;98878.22;4303700;33;33868;-87
2023/03/08 07:54:48;;;;;;;1.85;1.50;;;;;;;11.71;48.03;98883.19;4293140;33;34009;-90
2023/03/08 07:57:16;;;;;;;0.50;0.50;;;;;;;11.98;45.55;98881.47;4314727;33;32461;-89
2023/03/08 07:59:46;;;;;;;12.68;2.20;;;;;;;11.86;45.44;98890.19;4339808;32;32243;-89
2023/03/08 08:02:14;;;;;;;2.20;2.00;;;;;;;11.79;44.79;98899.44;4354598;32;33707;-91
2023/03/08 08:04:45;;;;;;;4.82;2.03;;;;;;;11.71;45.46;98909.63;4361123;32;33420;-89
2023/03/08 08:10:25;;;;;;;0.73;0.60;;;;;;;11.62;44.67;98900.47;4339126;32;33101;-89
2023/03/08 08:12:56;;;;;;;2.05;1.90;;;;;;;11.80;45.27;98909.91;4363622;32;34595;-89
2023/03/08 08:15:31;;;;;;;2.28;2.12;;;;;;;11.90;45.69;98898.78;4335239;32;34957;-89
2023/03/08 08:18:03;;;;;;;1.45;1.27;;;;;;;11.91;46.82;98905.78;4343463;32;33101;-89
2023/03/08 08:20:35;;;;;;;2.37;1.45;;;;;;;11.86;44.53;98908.72;4319294;32;34068;-90
2023/03/08 08:23:07;;;;;;;3.78;3.58;;;;;;;11.82;42.42;98909.88;4347884;32;34188;-89
2023/03/08 08:25:38;;;;;;;4.68;4.37;;;;;;;12.20;46.56;98911.84;4319168;33;33201;-88
2023/03/08 08:28:07;;;;;;;2.37;1.55;;;;;;;12.28;44.34;98906.91;4329161;33;33479;-93
2023/03/08 08:30:37;;;;;;;2.17;1.27;;;;;;;12.20;41.29;98903.91;4320586;33;32383;-88
2023/03/08 08:33:06;;;;;;;0.20;0.20;;;;;;;12.48;41.16;98909.09;4344116;32;34463;-88
2023/03/08 08:35:35;;;;;;;2.08;1.98;;;;;;;12.27;39.30;98902.56;4319364;33;33807;-88
2023/03/08 08:38:12;;;;;;;3.00;1.52;;;;;;;12.50;39.70;98899.28;4348722;32;32574;-88
2023/03/08 08:40:50;;;;;;;0.20;0.20;;;;;;;12.43;40.38;98905.91;4345541;32;32339;-88
2023/03/08 08:43:19;;;;;;;1.70;1.37;;;;;;;12.34;39.85;98903.00;4349731;32;33232;-87
2023/03/08 08:45:53;;;;;;;9.48;2.97;;;;;;;12.26;42.56;98895.59;4367897;32;33714;-87
2023/03/08 08:48:22;;;;;;;1.70;1.40;;;;;;;12.44;42.31;98888.25;4387525;32;33436;-86
2023/03/08 08:50:50;;;;;;;1.75;1.65;;;;;;;12.20;42.91;98888.03;4379655;32;33266;-87
2023/03/08 08:53:20;;;;;;;0.75;0.50;;;;;;;11.98;44.25;98892.06;4357928;32;33203;-87
2023/03/08 08:55:49;;;;;;;4.82;1.65;;;;;;;11.94;44.71;98887.91;4381263;32;32711;-89
2023/03/08 08:58:17;;;;;;;1.25;1.17;;;;;;;11.83;43.88;98897.50;4391259;32;34221;-88
2023/03/08 09:00:47;;;;;;;2.05;1.77;;;;;;;11.68;44.14;98888.66;4411597;32;33245;-89
2023/03/08 09:03:17;;;;;;;2.28;2.08;;;;;;;11.42;44.33;98893.78;4419349;32;32787;-89
2023/03/08 09:05:47;;;;;;;2.47;2.20;;;;;;;11.63;44.58;98890.75;4412527;32;33228;-88
2023/03/08 09:08:16;;;;;;;1.48;1.40;;;;;;;11.66;44.53;98880.00;4413841;32;34530;-89
2023/03/08 09:10:45;;;;;;;2.40;1.37;;;;;;;11.60;43.48;98875.94;4389550;32;33084;-89
2023/03/08 09:13:15;;;;;;;2.20;1.90;;;;;;;11.81;43.37;98876.38;4389598;32;32965;-89
2023/03/08 09:15:45;;;;;;;2.62;2.15;;;;;;;11.72;43.88;98875.16;4378865;32;33555;-89
2023/03/08 09:18:13;;;;;;;2.17;2.08;;;;;;;11.70;44.27;98882.34;4379480;32;33764;-89
2023/03/08 09:20:43;;;;;;;3.42;1.58;;;;;;;11.65;43.57;98879.16;4412974;32;33123;-88
2023/03/08 09:23:11;;;;;;;5.55;1.67;;;;;;;11.60;43.78;98894.44;4384313;32;33672;-88
2023/03/08 09:25:43;;;;;;;0.25;0.25;;;;;;;11.38;43.97;98896.72;4398236;32;33590;-89
2023/03/08 09:28:12;;;;;;;3.72;1.73;;;;;;;11.35;43.55;98887.19;4407172;32;33548;-88
2023/03/08 09:30:41;;;;;;;3.50;1.90;;;;;;;11.24;44.64;98884.34;4398518;32;33860;-88
2023/03/08 09:33:08;;;;;;;0.52;0.52;;;;;;;11.17;45.39;98889.16;4411277;32;33091;-89
2023/03/08 09:35:37;;;;;;;3.15;2.85;;;;;;;11.46;45.76;98868.88;4372998;32;32859;-88
2023/03/08 09:38:06;;;;;;;1.12;1.12;;;;;;;11.06;46.77;98880.16;4387631;32;33550;-88
2023/03/08 09:40:45;;;;;;;1.40;1.30;;;;;;;11.29;46.51;98883.13;4402599;32;33552;-89
2023/03/08 09:43:24;;;;;;;1.83;1.73;;;;;;;11.29;45.50;98879.63;4369847;32;33646;-89
2023/03/08 09:45:53;;;;;;;4.55;2.12;;;;;;;11.59;44.88;98876.91;4365200;32;34087;-88
2023/03/08 09:48:29;;;;;;;1.00;0.95;;;;;;;11.60;43.61;98880.37;4366384;32;32929;-89
2023/03/08 09:51:02;;;;;;;8.68;1.50;;;;;;;11.90;42.39;98875.81;4358311;32;34352;-91
2023/03/08 09:53:45;;;;;;;1.83;1.73;;;;;;;12.07;42.51;98866.81;4325830;33;32747;-88
2023/03/08 09:56:30;;;;;;;4.70;1.95;;;;;;;12.25;42.75;98870.91;4339901;32;33187;-87
2023/03/08 09:59:06;;;;;;;1.85;1.75;;;;;;;11.87;42.35;98883.09;4351786;32;32716;-88
2023/03/08 10:01:54;;;;;;;1.37;1.27;;;;;;;11.82;43.50;98875.50;4374856;32;33968;-87
2023/03/08 10:04:44;;;;;;;1.67;1.58;;;;;;;12.13;44.32;98876.16;4381103;32;34576;-88
2023/03/08 10:07:51;;;;;;;1.30;0.90;;;;;;;11.80;43.60;98872.87;4376123;32;32680;-88
2023/03/08 10:10:30;;;;;;;3.65;1.35;;;;;;;12.12;44.92;98867.38;4343580;32;34492;-88
2023/03/08 10:13:14;;;;;;;1.73;1.62;;;;;;;11.66;43.51;98866.78;4339480;32;33077;-86
2023/03/08 10:15:50;;;;;;;3.67;3.35;;;;;;;12.28;42.38;98853.97;4336521;32;32570;-86
2023/03/08 10:18:32;;;;;;;3.90;2.35;;;;;;;12.50;39.56;98851.63;4348670;32;34774;-85
2023/03/08 10:21:01;;;;;;;6.05;5.65;;;;;;;12.59;42.37;98852.81;4334919;32;33548;-86
2023/03/08 10:26:11;;;;;;;6.72;4.93;;;;;;;13.15;40.58;98841.91;4380042;32;33114;-86
2023/03/08 10:28:40;;;;;;;7.07;6.45;;;;;;;13.48;41.12;98849.34;4376202;32;34439;-87
2023/03/08 10:31:27;;;;;;;3.25;3.00;;;;;;;13.67;40.33;98848.88;4368215;32;33850;-87
2023/03/08 10:34:07;;;;;;;2.28;2.12;;;;;;;13.78;39.63;98844.53;4372037;32;33237;-85
2023/03/08 10:36:58;;;;;;;1.42;1.10;;;;;;;13.77;39.30;98855.25;4375914;32;34002;-85
2023/03/08 10:39:29;;;;;;;10.18;2.45;;;;;;;13.74;37.39;98866.06;4339793;32;32838;-86
2023/03/08 10:41:59;;;;;;;0.55;0.55;;;;;;;13.98;37.77;98847.53;4380271;32;33764;-87
2023/03/08 10:44:44;;;;;;;1.90;1.77;;;;;;;13.80;36.76;98847.06;4378839;32;33414;-86
2023/03/08 10:47:20;;;;;;;1.73;1.48;;;;;;;13.98;35.59;98852.84;4345915;32;33450;-87
2023/03/08 10:50:05;;;;;;;4.20;3.30;;;;;;;14.05;35.34;98848.78;4307602;32;34039;-86
2023/03/08 10:52:33;;;;;;;1.15;1.12;;;;;;;14.42;36.69;98841.59;4376730;32;33762;-88
2023/03/08 10:55:05;;;;;;;1.87;1.83;;;;;;;14.07;34.84;98839.75;4373547;32;32619;-88
2023/03/08 10:57:50;;;;;;;4.47;4.10;;;;;;;14.18;36.37;98827.47;4347602;32;33282;-87
2023/03/08 11:00:19;;;;;;;1.77;1.67;;;;;;;14.41;34.67;98826.63;4368339;32;33067;-88
2023/03/08 11:02:49;;;;;;;0.77;0.77;;;;;;;14.54;34.73;98824.78;4372906;32;33845;-88
2023/03/08 11:05:21;;;;;;;4.12;2.85;;;;;;;14.52;35.15;98821.38;4369600;32;33202;-87
2023/03/08 11:07:54;;;;;;;2.33;1.98;;;;;;;14.84;36.08;98823.41;4409164;32;33631;-88
2023/03/08 11:13:31;;;;;;;1.00;1.00;;;;;;;13.94;35.31;98823.03;4367641;32;32444;-89
2023/03/08 11:16:07;;;;;;;1.92;1.80;;;;;;;13.88;35.94;98812.84;4319587;33;34111;-89
2023/03/08 11:19:12;;;;;;;1.12;1.08;;;;;;;13.54;35.81;98823.25;4317385;33;33511;-91
2023/03/08 11:22:06;;;;;;;0.20;0.20;;;;;;;13.54;37.31;98812.66;4356241;32;32609;-88
2023/03/08 11:24:54;;;;;;;0.68;0.68;;;;;;;13.54;35.45;98802.03;4377280;32;34123;-86
2023/03/08 11:27:35;;;;;;;1.10;1.00;;;;;;;13.57;35.05;98800.94;4337410;32;32901;-87
2023/03/08 11:30:23;;;;;;;9.60;4.10;;;;;;;13.66;35.44;98799.44;4343927;32;33525;-88
2023/03/08 11:33:24;;;;;;;4.00;3.70;;;;;;;13.90;35.65;98804.78;4341005;32;33199;-88
2023/03/08 11:36:21;;;;;;;1.08;1.05;;;;;;;13.85;36.15;98805.09;4345806;32;34083;-90
2023/03/08 11:39:24;;;;;;;1.85;1.75;;;;;;;13.96;36.04;98809.66;4325493;33;32648;-91
2023/03/08 11:45:44;;;;;;;0.82;0.82;;;;;;;13.69;35.67;98797.44;4358831;32;33459;-89
2023/03/08 11:48:34;;;;;;;3.55;2.42;;;;;;;13.64;35.35;98781.00;4340280;33;33641;-89
2023/03/08 11:51:10;;;;;;;2.45;1.08;;;;;;;14.04;35.94;98773.59;4334739;33;32999;-89
2023/03/08 11:53:57;;;;;;;0.75;0.75;;;;;;;14.44;34.55;98777.75;4339412;32;32339;-88
2023/03/08 11:56:46;;;;;;;1.70;1.23;;;;;;;13.96;32.67;98777.81;4346558;32;34759;-89
2023/03/08 11:59:17;;;;;;;1.15;1.08;;;;;;;14.37;33.61;98772.03;4339451;32;32379;-88
2023/03/08 12:02:09;;;;;;;0.73;0.73;;;;;;;14.67;33.92;98760.06;4350249;32;32344;-88
2023/03/08 12:05:01;;;;;;;4.72;3.55;;;;;;;14.82;33.75;98764.22;4359768;32;32704;-85
2023/03/08 12:07:34;;;;;;;7.22;6.35;;;;;;;14.88;34.80;98762.88;4374830;32;34194;-87
2023/03/08 12:10:14;;;;;;;4.93;3.58;;;;;;;14.10;35.59;98772.31;4359311;32;33656;-88
2023/03/08 12:12:47;;;;;;;3.60;3.30;;;;;;;14.60;35.69;98763.22;4365149;32;32012;-88
2023/03/08 12:15:33;;;;;;;3.92;2.78;;;;;;;14.70;34.71;98767.81;4349744;32;33748;-89
2023/03/08 12:18:13;;;;;;;4.95;2.17;;;;;;;14.66;32.30;98753.06;4350145;32;33086;-89
2023/03/08 12:20:42;;;;;;;1.02;1.02;;;;;;;14.54;34.04;98754.88;4386364;32;32278;-88
2023/03/08 12:23:23;;;;;;;5.05;2.25;;;;;;;14.75;33.37;98757.69;4375096;32;32826;-88